sensor_id;sensor_type;location;lat;lon;timestamp;temperature;humidity
11264;DHT22;5689;48.798;9.070;2023-01-29T00:01:56;0.10;99.90
11264;DHT22;5689;48.798;9.070;2023-01-29T00:04:24;0.30;99.90
11264;DHT22;5689;48.798;9.070;2023-01-29T00:06:52;0.00;99.90
11264;DHT22;5689;48.798;9.070;2023-01-29T00:09:20;0.10;99.90
11264;DHT22;5689;48.798;9.070;2023-01-29T00:11:48;0.10;99.90
11264;DHT22;5689;48.798;9.070;2023-01-29T00:14:16;0.00;99.90
11264;DHT22;5689;48.798;9.070;2023-01-29T00:16:45;-0.10;99.90
11264;DHT22;5689;48.798;9.070;2023-01-29T00:19:13;0.00;99.90
11264;DHT22;5689;48.798;9.070;2023-01-29T00:21:41;-0.10;99.90
11264;DHT22;5689;48.798;9.070;2023-01-29T00:24:09;0.10;99.90
11264;DHT22;5689;48.798;9.070;2023-01-29T00:26:37;0.00;99.90
11264;DHT22;5689;48.798;9.070;2023-01-29T00:29:05;-0.10;99.90
11264;DHT22;5689;48.798;9.070;2023-01-29T00:31:34;-0.10;99.90
11264;DHT22;5689;48.798;9.070;2023-01-29T00:34:03;-0.10;99.90
11264;DHT22;5689;48.798;9.070;2023-01-29T00:36:31;0.00;99.90
11264;DHT22;5689;48.798;9.070;2023-01-29T00:39:00;-0.10;99.90
11264;DHT22;5689;48.798;9.070;2023-01-29T00:41:37;-0.10;99.90
11264;DHT22;5689;48.798;9.070;2023-01-29T00:44:22;-0.30;99.90
11264;DHT22;5689;48.798;9.070;2023-01-29T00:47:08;-0.30;99.90
11264;DHT22;5689;48.798;9.070;2023-01-29T00:49:58;-0.20;99.90
11264;DHT22;5689;48.798;9.070;2023-01-29T00:52:26;0.00;99.90
11264;DHT22;5689;48.798;9.070;2023-01-29T00:54:56;-0.10;99.90
11264;DHT22;5689;48.798;9.070;2023-01-29T00:57:25;-0.10;99.90
11264;DHT22;5689;48.798;9.070;2023-01-29T00:59:54;-0.10;99.90
11264;DHT22;5689;48.798;9.070;2023-01-29T01:02:22;-0.10;99.90
11264;DHT22;5689;48.798;9.070;2023-01-29T01:05:07;-0.20;99.90
11264;DHT22;5689;48.798;9.070;2023-01-29T01:07:45;-0.10;99.90
11264;DHT22;5689;48.798;9.070;2023-01-29T01:10:15;-0.10;99.90
11264;DHT22;5689;48.798;9.070;2023-01-29T01:12:50;0.00;99.90
11264;DHT22;5689;48.798;9.070;2023-01-29T01:15:20;0.00;99.90
11264;DHT22;5689;48.798;9.070;2023-01-29T01:17:52;-0.20;99.90
11264;DHT22;5689;48.798;9.070;2023-01-29T01:20:21;-0.30;99.90
11264;DHT22;5689;48.798;9.070;2023-01-29T01:22:52;-0.40;99.90
11264;DHT22;5689;48.798;9.070;2023-01-29T01:25:20;-0.40;99.90
11264;DHT22;5689;48.798;9.070;2023-01-29T01:27:51;-0.50;99.90
11264;DHT22;5689;48.798;9.070;2023-01-29T01:30:19;-0.40;99.90
11264;DHT22;5689;48.798;9.070;2023-01-29T01:32:47;-0.50;99.90
11264;DHT22;5689;48.798;9.070;2023-01-29T01:35:16;-0.40;99.90
11264;DHT22;5689;48.798;9.070;2023-01-29T01:37:45;-0.40;99.90
11264;DHT22;5689;48.798;9.070;2023-01-29T01:40:16;-0.40;99.90
11264;DHT22;5689;48.798;9.070;2023-01-29T01:42:47;-0.50;99.90
11264;DHT22;5689;48.798;9.070;2023-01-29T01:45:21;-0.50;99.90
11264;DHT22;5689;48.798;9.070;2023-01-29T01:47:53;-0.40;99.90
11264;DHT22;5689;48.798;9.070;2023-01-29T01:50:26;-0.30;99.90
11264;DHT22;5689;48.798;9.070;2023-01-29T01:53:01;-0.40;99.90
11264;DHT22;5689;48.798;9.070;2023-01-29T01:55:32;-0.40;99.90
11264;DHT22;5689;48.798;9.070;2023-01-29T01:58:05;-0.50;99.90
11264;DHT22;5689;48.798;9.070;2023-01-29T02:00:35;-0.40;99.90
11264;DHT22;5689;48.798;9.070;2023-01-29T02:03:04;-0.50;99.90
11264;DHT22;5689;48.798;9.070;2023-01-29T02:05:52;-0.60;99.90
11264;DHT22;5689;48.798;9.070;2023-01-29T02:08:46;-0.60;99.90
11264;DHT22;5689;48.798;9.070;2023-01-29T02:11:35;-0.60;99.90
11264;DHT22;5689;48.798;9.070;2023-01-29T02:14:03;-0.70;99.90
11264;DHT22;5689;48.798;9.070;2023-01-29T02:16:33;-0.60;99.90
11264;DHT22;5689;48.798;9.070;2023-01-29T02:19:03;-0.40;99.90
11264;DHT22;5689;48.798;9.070;2023-01-29T02:21:49;-0.50;99.90
11264;DHT22;5689;48.798;9.070;2023-01-29T02:25:02;-0.50;99.90
11264;DHT22;5689;48.798;9.070;2023-01-29T02:30:48;-0.50;99.90
11264;DHT22;5689;48.798;9.070;2023-01-29T02:33:34;-0.60;99.90
11264;DHT22;5689;48.798;9.070;2023-01-29T02:36:12;-0.60;99.90
11264;DHT22;5689;48.798;9.070;2023-01-29T02:38:46;-0.70;99.90
11264;DHT22;5689;48.798;9.070;2023-01-29T02:41:22;-0.60;99.90
11264;DHT22;5689;48.798;9.070;2023-01-29T02:47:21;-0.70;99.90
11264;DHT22;5689;48.798;9.070;2023-01-29T02:49:58;-0.60;99.90
11264;DHT22;5689;48.798;9.070;2023-01-29T02:52:34;-0.60;99.90
11264;DHT22;5689;48.798;9.070;2023-01-29T02:55:09;-0.60;99.90
11264;DHT22;5689;48.798;9.070;2023-01-29T02:57:40;-0.60;99.90
11264;DHT22;5689;48.798;9.070;2023-01-29T03:00:13;-0.50;99.90
11264;DHT22;5689;48.798;9.070;2023-01-29T03:02:47;-0.50;99.90
11264;DHT22;5689;48.798;9.070;2023-01-29T03:05:22;-0.50;99.90
11264;DHT22;5689;48.798;9.070;2023-01-29T03:07:55;-0.60;99.90
11264;DHT22;5689;48.798;9.070;2023-01-29T03:10:37;-0.50;99.90
11264;DHT22;5689;48.798;9.070;2023-01-29T03:13:11;-0.60;99.90
11264;DHT22;5689;48.798;9.070;2023-01-29T03:15:44;-0.60;99.90
11264;DHT22;5689;48.798;9.070;2023-01-29T03:18:31;-0.50;99.90
11264;DHT22;5689;48.798;9.070;2023-01-29T03:21:05;-0.60;99.90
11264;DHT22;5689;48.798;9.070;2023-01-29T03:23:56;-0.70;99.90
11264;DHT22;5689;48.798;9.070;2023-01-29T03:26:43;-0.70;99.90
11264;DHT22;5689;48.798;9.070;2023-01-29T03:29:35;-0.70;99.90
11264;DHT22;5689;48.798;9.070;2023-01-29T03:32:26;-0.60;99.90
11264;DHT22;5689;48.798;9.070;2023-01-29T03:35:01;-0.70;99.90
11264;DHT22;5689;48.798;9.070;2023-01-29T03:37:34;-0.70;99.90
11264;DHT22;5689;48.798;9.070;2023-01-29T03:40:06;-0.70;99.90
11264;DHT22;5689;48.798;9.070;2023-01-29T03:42:43;-0.70;99.90
11264;DHT22;5689;48.798;9.070;2023-01-29T03:45:15;-0.70;99.90
11264;DHT22;5689;48.798;9.070;2023-01-29T03:47:50;-0.60;99.90
11264;DHT22;5689;48.798;9.070;2023-01-29T03:50:31;-0.70;99.90
11264;DHT22;5689;48.798;9.070;2023-01-29T03:53:05;-0.60;99.90
11264;DHT22;5689;48.798;9.070;2023-01-29T03:55:40;-0.60;99.90
11264;DHT22;5689;48.798;9.070;2023-01-29T03:58:19;-0.60;99.90
11264;DHT22;5689;48.798;9.070;2023-01-29T04:00:53;-0.70;99.90
11264;DHT22;5689;48.798;9.070;2023-01-29T04:03:27;-0.70;99.90
11264;DHT22;5689;48.798;9.070;2023-01-29T04:06:03;-0.80;99.90
11264;DHT22;5689;48.798;9.070;2023-01-29T04:08:46;-0.70;99.90
11264;DHT22;5689;48.798;9.070;2023-01-29T04:11:17;-0.80;99.90
11264;DHT22;5689;48.798;9.070;2023-01-29T04:13:46;-0.70;99.90
11264;DHT22;5689;48.798;9.070;2023-01-29T04:16:21;-0.60;99.90
11264;DHT22;5689;48.798;9.070;2023-01-29T04:19:07;-0.50;99.90
11264;DHT22;5689;48.798;9.070;2023-01-29T04:21:40;-0.30;99.90
11264;DHT22;5689;48.798;9.070;2023-01-29T04:24:09;-0.30;99.90
11264;DHT22;5689;48.798;9.070;2023-01-29T04:26:59;-0.40;99.90
11264;DHT22;5689;48.798;9.070;2023-01-29T04:29:40;-0.30;99.90
11264;DHT22;5689;48.798;9.070;2023-01-29T04:32:15;-0.40;99.90
11264;DHT22;5689;48.798;9.070;2023-01-29T04:34:52;-0.40;99.90
11264;DHT22;5689;48.798;9.070;2023-01-29T04:37:32;-0.40;99.90
11264;DHT22;5689;48.798;9.070;2023-01-29T04:40:11;-0.30;99.90
11264;DHT22;5689;48.798;9.070;2023-01-29T04:42:46;-0.30;99.90
11264;DHT22;5689;48.798;9.070;2023-01-29T04:45:20;-0.20;99.90
11264;DHT22;5689;48.798;9.070;2023-01-29T04:47:59;-0.20;99.90
11264;DHT22;5689;48.798;9.070;2023-01-29T04:50:35;-0.30;99.90
11264;DHT22;5689;48.798;9.070;2023-01-29T04:53:09;-0.30;99.90
11264;DHT22;5689;48.798;9.070;2023-01-29T04:55:41;-0.40;99.90
11264;DHT22;5689;48.798;9.070;2023-01-29T04:58:13;-0.60;99.90
11264;DHT22;5689;48.798;9.070;2023-01-29T05:00:43;-0.70;99.90
11264;DHT22;5689;48.798;9.070;2023-01-29T05:03:13;-0.90;99.90
11264;DHT22;5689;48.798;9.070;2023-01-29T05:05:44;-0.90;99.90
11264;DHT22;5689;48.798;9.070;2023-01-29T05:08:16;-0.60;99.90
11264;DHT22;5689;48.798;9.070;2023-01-29T05:10:47;-0.50;99.90
11264;DHT22;5689;48.798;9.070;2023-01-29T05:13:17;-0.50;99.90
11264;DHT22;5689;48.798;9.070;2023-01-29T05:15:51;-0.40;99.90
11264;DHT22;5689;48.798;9.070;2023-01-29T05:18:21;-0.30;99.90
11264;DHT22;5689;48.798;9.070;2023-01-29T05:20:49;-0.30;99.90
11264;DHT22;5689;48.798;9.070;2023-01-29T05:23:21;-0.80;99.90
11264;DHT22;5689;48.798;9.070;2023-01-29T05:25:50;-0.80;99.90
11264;DHT22;5689;48.798;9.070;2023-01-29T05:28:18;-0.80;99.90
11264;DHT22;5689;48.798;9.070;2023-01-29T05:30:47;-0.90;99.90
11264;DHT22;5689;48.798;9.070;2023-01-29T05:33:17;-0.90;99.90
11264;DHT22;5689;48.798;9.070;2023-01-29T05:35:46;-0.90;99.90
11264;DHT22;5689;48.798;9.070;2023-01-29T05:38:15;-0.90;99.90
11264;DHT22;5689;48.798;9.070;2023-01-29T05:40:45;-0.80;99.90
11264;DHT22;5689;48.798;9.070;2023-01-29T05:43:14;-0.80;99.90
11264;DHT22;5689;48.798;9.070;2023-01-29T05:45:43;-0.80;99.90
11264;DHT22;5689;48.798;9.070;2023-01-29T05:48:18;-0.90;99.90
11264;DHT22;5689;48.798;9.070;2023-01-29T05:50:46;-0.80;99.90
11264;DHT22;5689;48.798;9.070;2023-01-29T05:53:14;-0.90;99.90
11264;DHT22;5689;48.798;9.070;2023-01-29T05:55:44;-0.80;99.90
11264;DHT22;5689;48.798;9.070;2023-01-29T05:58:12;-0.70;99.90
11264;DHT22;5689;48.798;9.070;2023-01-29T06:00:40;-0.60;99.90
11264;DHT22;5689;48.798;9.070;2023-01-29T06:03:08;-0.60;99.90
11264;DHT22;5689;48.798;9.070;2023-01-29T06:05:37;-0.50;99.90
11264;DHT22;5689;48.798;9.070;2023-01-29T06:08:07;-0.60;99.90
11264;DHT22;5689;48.798;9.070;2023-01-29T06:10:35;-0.60;99.90
11264;DHT22;5689;48.798;9.070;2023-01-29T06:13:04;-0.80;99.90
11264;DHT22;5689;48.798;9.070;2023-01-29T06:15:33;-0.80;99.90
11264;DHT22;5689;48.798;9.070;2023-01-29T06:18:01;-0.80;99.90
11264;DHT22;5689;48.798;9.070;2023-01-29T06:20:29;-0.70;99.90
11264;DHT22;5689;48.798;9.070;2023-01-29T06:22:57;-0.80;99.90
11264;DHT22;5689;48.798;9.070;2023-01-29T06:25:25;-0.80;99.90
11264;DHT22;5689;48.798;9.070;2023-01-29T06:27:53;-0.70;99.90
11264;DHT22;5689;48.798;9.070;2023-01-29T06:30:25;-0.70;99.90
11264;DHT22;5689;48.798;9.070;2023-01-29T06:32:54;-0.80;99.90
11264;DHT22;5689;48.798;9.070;2023-01-29T06:35:24;-0.70;99.90
11264;DHT22;5689;48.798;9.070;2023-01-29T06:37:52;-0.80;99.90
11264;DHT22;5689;48.798;9.070;2023-01-29T06:40:20;-0.90;99.90
11264;DHT22;5689;48.798;9.070;2023-01-29T06:42:48;-0.80;99.90
11264;DHT22;5689;48.798;9.070;2023-01-29T06:45:16;-0.80;99.90
11264;DHT22;5689;48.798;9.070;2023-01-29T06:47:45;-0.70;99.90
11264;DHT22;5689;48.798;9.070;2023-01-29T06:50:13;-0.70;99.90
11264;DHT22;5689;48.798;9.070;2023-01-29T06:52:41;-0.80;99.90
11264;DHT22;5689;48.798;9.070;2023-01-29T06:55:09;-0.80;99.90
11264;DHT22;5689;48.798;9.070;2023-01-29T06:57:37;-0.70;99.90
11264;DHT22;5689;48.798;9.070;2023-01-29T07:00:06;-0.80;99.90
11264;DHT22;5689;48.798;9.070;2023-01-29T07:02:35;-0.70;99.90
11264;DHT22;5689;48.798;9.070;2023-01-29T07:05:05;-0.80;99.90
11264;DHT22;5689;48.798;9.070;2023-01-29T07:07:34;-0.80;99.90
11264;DHT22;5689;48.798;9.070;2023-01-29T07:10:03;-0.90;99.90
11264;DHT22;5689;48.798;9.070;2023-01-29T07:12:31;-0.80;99.90
11264;DHT22;5689;48.798;9.070;2023-01-29T07:14:59;-0.80;99.90
11264;DHT22;5689;48.798;9.070;2023-01-29T07:17:26;-0.70;99.90
11264;DHT22;5689;48.798;9.070;2023-01-29T07:19:54;-0.70;99.90
11264;DHT22;5689;48.798;9.070;2023-01-29T07:22:24;-0.50;99.90
11264;DHT22;5689;48.798;9.070;2023-01-29T07:24:52;-0.50;99.90
11264;DHT22;5689;48.798;9.070;2023-01-29T07:27:20;-0.30;99.90
11264;DHT22;5689;48.798;9.070;2023-01-29T07:29:47;-0.30;99.90
11264;DHT22;5689;48.798;9.070;2023-01-29T07:32:15;-0.30;99.90
11264;DHT22;5689;48.798;9.070;2023-01-29T07:34:43;-0.30;99.90
11264;DHT22;5689;48.798;9.070;2023-01-29T07:37:11;-0.20;99.90
11264;DHT22;5689;48.798;9.070;2023-01-29T07:39:41;-0.40;99.90
11264;DHT22;5689;48.798;9.070;2023-01-29T07:42:09;-0.50;99.90
11264;DHT22;5689;48.798;9.070;2023-01-29T07:44:37;-0.60;99.90
11264;DHT22;5689;48.798;9.070;2023-01-29T07:47:04;-0.40;99.90
11264;DHT22;5689;48.798;9.070;2023-01-29T07:49:32;-0.30;99.90
11264;DHT22;5689;48.798;9.070;2023-01-29T07:52:00;-0.20;99.90
11264;DHT22;5689;48.798;9.070;2023-01-29T07:54:29;-0.40;99.90
11264;DHT22;5689;48.798;9.070;2023-01-29T07:56:59;-0.30;99.90
11264;DHT22;5689;48.798;9.070;2023-01-29T07:59:27;-0.20;99.90
11264;DHT22;5689;48.798;9.070;2023-01-29T08:01:55;-0.10;99.90
11264;DHT22;5689;48.798;9.070;2023-01-29T08:04:23;0.00;99.90
11264;DHT22;5689;48.798;9.070;2023-01-29T08:06:51;0.00;99.90
11264;DHT22;5689;48.798;9.070;2023-01-29T08:09:19;0.00;99.90
11264;DHT22;5689;48.798;9.070;2023-01-29T08:11:46;0.10;99.90
11264;DHT22;5689;48.798;9.070;2023-01-29T08:14:16;0.00;99.90
11264;DHT22;5689;48.798;9.070;2023-01-29T08:16:44;0.00;99.90
11264;DHT22;5689;48.798;9.070;2023-01-29T08:19:12;-0.10;99.90
11264;DHT22;5689;48.798;9.070;2023-01-29T08:21:40;-0.10;99.90
11264;DHT22;5689;48.798;9.070;2023-01-29T08:24:08;-0.10;99.90
11264;DHT22;5689;48.798;9.070;2023-01-29T08:26:36;0.00;99.90
11264;DHT22;5689;48.798;9.070;2023-01-29T08:29:04;-0.20;99.90
11264;DHT22;5689;48.798;9.070;2023-01-29T08:31:33;-0.20;99.90
11264;DHT22;5689;48.798;9.070;2023-01-29T08:34:01;-0.20;99.90
11264;DHT22;5689;48.798;9.070;2023-01-29T08:36:29;-0.20;99.90
11264;DHT22;5689;48.798;9.070;2023-01-29T08:38:57;-0.20;99.90
11264;DHT22;5689;48.798;9.070;2023-01-29T08:41:25;-0.10;99.90
11264;DHT22;5689;48.798;9.070;2023-01-29T08:43:53;-0.20;99.90
11264;DHT22;5689;48.798;9.070;2023-01-29T08:46:22;-0.40;99.90
11264;DHT22;5689;48.798;9.070;2023-01-29T08:48:52;-0.40;99.90
11264;DHT22;5689;48.798;9.070;2023-01-29T08:51:21;-0.30;99.90
11264;DHT22;5689;48.798;9.070;2023-01-29T08:53:49;-0.30;99.90
11264;DHT22;5689;48.798;9.070;2023-01-29T08:56:17;-0.30;99.90
11264;DHT22;5689;48.798;9.070;2023-01-29T08:58:45;-0.10;99.90
11264;DHT22;5689;48.798;9.070;2023-01-29T09:01:13;0.00;99.90
11264;DHT22;5689;48.798;9.070;2023-01-29T09:03:41;0.20;99.90
11264;DHT22;5689;48.798;9.070;2023-01-29T09:06:12;0.40;99.90
11264;DHT22;5689;48.798;9.070;2023-01-29T09:08:41;0.40;99.90
11264;DHT22;5689;48.798;9.070;2023-01-29T09:11:09;0.30;99.90
11264;DHT22;5689;48.798;9.070;2023-01-29T09:13:37;0.40;99.90
11264;DHT22;5689;48.798;9.070;2023-01-29T09:16:05;0.40;99.90
11264;DHT22;5689;48.798;9.070;2023-01-29T09:18:33;0.10;99.90
11264;DHT22;5689;48.798;9.070;2023-01-29T09:21:01;0.30;99.90
11264;DHT22;5689;48.798;9.070;2023-01-29T09:23:31;0.50;99.90
11264;DHT22;5689;48.798;9.070;2023-01-29T09:25:59;0.60;99.90
11264;DHT22;5689;48.798;9.070;2023-01-29T09:28:27;0.50;99.90
11264;DHT22;5689;48.798;9.070;2023-01-29T09:30:55;0.40;99.90
11264;DHT22;5689;48.798;9.070;2023-01-29T09:33:23;0.30;99.90
11264;DHT22;5689;48.798;9.070;2023-01-29T09:35:51;0.50;99.90
11264;DHT22;5689;48.798;9.070;2023-01-29T09:38:19;0.50;99.90
11264;DHT22;5689;48.798;9.070;2023-01-29T09:40:56;0.50;99.90
11264;DHT22;5689;48.798;9.070;2023-01-29T09:43:34;0.60;99.90
11264;DHT22;5689;48.798;9.070;2023-01-29T09:46:06;1.10;99.90
11264;DHT22;5689;48.798;9.070;2023-01-29T09:48:41;0.90;99.90
11264;DHT22;5689;48.798;9.070;2023-01-29T09:51:14;1.30;99.90
11264;DHT22;5689;48.798;9.070;2023-01-29T09:53:46;1.50;99.90
11264;DHT22;5689;48.798;9.070;2023-01-29T09:56:19;1.40;99.90
11264;DHT22;5689;48.798;9.070;2023-01-29T09:58:49;1.70;99.90
11264;DHT22;5689;48.798;9.070;2023-01-29T10:01:22;1.50;99.90
11264;DHT22;5689;48.798;9.070;2023-01-29T10:07:04;1.70;99.90
11264;DHT22;5689;48.798;9.070;2023-01-29T10:09:58;2.70;99.90
11264;DHT22;5689;48.798;9.070;2023-01-29T10:12:48;2.90;99.90
11264;DHT22;5689;48.798;9.070;2023-01-29T10:15:40;3.10;99.90
11264;DHT22;5689;48.798;9.070;2023-01-29T10:18:42;3.50;99.90
11264;DHT22;5689;48.798;9.070;2023-01-29T10:21:35;4.30;99.90
11264;DHT22;5689;48.798;9.070;2023-01-29T10:24:15;4.30;99.90
11264;DHT22;5689;48.798;9.070;2023-01-29T10:26:47;4.20;99.90
11264;DHT22;5689;48.798;9.070;2023-01-29T10:29:18;3.40;99.90
11264;DHT22;5689;48.798;9.070;2023-01-29T10:31:52;3.50;99.90
11264;DHT22;5689;48.798;9.070;2023-01-29T10:34:26;3.30;99.90
11264;DHT22;5689;48.798;9.070;2023-01-29T10:36:56;3.30;99.90
11264;DHT22;5689;48.798;9.070;2023-01-29T10:39:25;3.40;99.90
11264;DHT22;5689;48.798;9.070;2023-01-29T10:42:07;3.40;99.90
11264;DHT22;5689;48.798;9.070;2023-01-29T10:44:51;3.00;99.90
11264;DHT22;5689;48.798;9.070;2023-01-29T10:47:33;1.80;99.90
11264;DHT22;5689;48.798;9.070;2023-01-29T10:50:17;2.00;99.90
11264;DHT22;5689;48.798;9.070;2023-01-29T10:52:57;2.70;99.90
11264;DHT22;5689;48.798;9.070;2023-01-29T10:55:38;3.10;99.90
11264;DHT22;5689;48.798;9.070;2023-01-29T10:58:15;3.00;99.90
11264;DHT22;5689;48.798;9.070;2023-01-29T11:00:47;3.20;99.90
11264;DHT22;5689;48.798;9.070;2023-01-29T11:03:20;3.10;99.90
11264;DHT22;5689;48.798;9.070;2023-01-29T11:05:59;2.80;99.90
11264;DHT22;5689;48.798;9.070;2023-01-29T11:08:33;3.30;99.90
11264;DHT22;5689;48.798;9.070;2023-01-29T11:11:06;3.10;99.90
11264;DHT22;5689;48.798;9.070;2023-01-29T11:13:40;2.90;99.90
11264;DHT22;5689;48.798;9.070;2023-01-29T11:16:10;3.00;99.90
11264;DHT22;5689;48.798;9.070;2023-01-29T11:18:50;2.80;99.90
11264;DHT22;5689;48.798;9.070;2023-01-29T11:21:18;2.40;99.90
11264;DHT22;5689;48.798;9.070;2023-01-29T11:23:47;2.40;99.90
11264;DHT22;5689;48.798;9.070;2023-01-29T11:26:17;2.20;99.90
11264;DHT22;5689;48.798;9.070;2023-01-29T11:28:48;2.20;99.90
11264;DHT22;5689;48.798;9.070;2023-01-29T11:31:25;2.50;99.90
11264;DHT22;5689;48.798;9.070;2023-01-29T11:34:02;2.90;99.90
11264;DHT22;5689;48.798;9.070;2023-01-29T11:36:33;2.70;99.90
11264;DHT22;5689;48.798;9.070;2023-01-29T11:39:14;2.60;99.90
11264;DHT22;5689;48.798;9.070;2023-01-29T11:41:47;2.60;99.90
11264;DHT22;5689;48.798;9.070;2023-01-29T11:44:31;2.80;99.90
11264;DHT22;5689;48.798;9.070;2023-01-29T11:47:11;2.70;99.90
11264;DHT22;5689;48.798;9.070;2023-01-29T11:49:43;2.70;99.90
11264;DHT22;5689;48.798;9.070;2023-01-29T11:52:12;3.10;99.90
11264;DHT22;5689;48.798;9.070;2023-01-29T11:54:45;3.40;99.90
11264;DHT22;5689;48.798;9.070;2023-01-29T11:57:22;3.40;99.90
11264;DHT22;5689;48.798;9.070;2023-01-29T11:59:52;2.70;99.90
11264;DHT22;5689;48.798;9.070;2023-01-29T12:02:26;2.80;99.90
11264;DHT22;5689;48.798;9.070;2023-01-29T12:04:58;3.10;99.90
11264;DHT22;5689;48.798;9.070;2023-01-29T12:07:27;3.50;99.90
11264;DHT22;5689;48.798;9.070;2023-01-29T12:09:57;3.60;99.90
11264;DHT22;5689;48.798;9.070;2023-01-29T12:12:31;4.10;99.90
11264;DHT22;5689;48.798;9.070;2023-01-29T12:15:16;4.30;99.90
11264;DHT22;5689;48.798;9.070;2023-01-29T12:18:03;4.50;99.90
11264;DHT22;5689;48.798;9.070;2023-01-29T12:20:37;4.20;99.90
11264;DHT22;5689;48.798;9.070;2023-01-29T12:23:18;5.50;99.90
11264;DHT22;5689;48.798;9.070;2023-01-29T12:25:54;7.20;99.90
11264;DHT22;5689;48.798;9.070;2023-01-29T12:28:33;7.90;99.40
11264;DHT22;5689;48.798;9.070;2023-01-29T12:31:18;8.50;97.40
11264;DHT22;5689;48.798;9.070;2023-01-29T12:33:52;8.30;95.80
11264;DHT22;5689;48.798;9.070;2023-01-29T12:36:25;7.80;95.60
11264;DHT22;5689;48.798;9.070;2023-01-29T12:38:55;7.60;96.40
11264;DHT22;5689;48.798;9.070;2023-01-29T12:41:30;7.80;95.20
11264;DHT22;5689;48.798;9.070;2023-01-29T12:44:04;7.50;94.70
11264;DHT22;5689;48.798;9.070;2023-01-29T12:46:37;6.90;95.90
11264;DHT22;5689;48.798;9.070;2023-01-29T12:49:14;6.20;97.80
11264;DHT22;5689;48.798;9.070;2023-01-29T12:51:49;5.40;98.50
11264;DHT22;5689;48.798;9.070;2023-01-29T12:54:22;6.00;97.40
11264;DHT22;5689;48.798;9.070;2023-01-29T12:56:58;7.20;96.50
11264;DHT22;5689;48.798;9.070;2023-01-29T12:59:30;7.00;95.50
11264;DHT22;5689;48.798;9.070;2023-01-29T13:02:06;7.30;96.30
11264;DHT22;5689;48.798;9.070;2023-01-29T13:04:45;7.90;95.20
11264;DHT22;5689;48.798;9.070;2023-01-29T13:07:17;8.50;93.10
11264;DHT22;5689;48.798;9.070;2023-01-29T13:09:52;7.40;94.00
11264;DHT22;5689;48.798;9.070;2023-01-29T13:12:23;6.50;96.20
11264;DHT22;5689;48.798;9.070;2023-01-29T13:14:55;6.40;96.40
11264;DHT22;5689;48.798;9.070;2023-01-29T13:17:26;6.20;96.00
11264;DHT22;5689;48.798;9.070;2023-01-29T13:20:02;6.70;96.20
11264;DHT22;5689;48.798;9.070;2023-01-29T13:22:33;7.70;95.20
11264;DHT22;5689;48.798;9.070;2023-01-29T13:25:03;9.10;93.10
11264;DHT22;5689;48.798;9.070;2023-01-29T13:27:33;9.30;90.90
11264;DHT22;5689;48.798;9.070;2023-01-29T13:30:03;8.10;92.50
11264;DHT22;5689;48.798;9.070;2023-01-29T13:32:33;7.90;93.20
11264;DHT22;5689;48.798;9.070;2023-01-29T13:35:10;6.90;94.40
11264;DHT22;5689;48.798;9.070;2023-01-29T13:37:43;6.60;95.10
11264;DHT22;5689;48.798;9.070;2023-01-29T13:40:20;6.40;94.90
11264;DHT22;5689;48.798;9.070;2023-01-29T13:42:50;6.10;95.50
11264;DHT22;5689;48.798;9.070;2023-01-29T13:45:21;6.80;94.20
11264;DHT22;5689;48.798;9.070;2023-01-29T13:47:51;6.00;95.00
11264;DHT22;5689;48.798;9.070;2023-01-29T13:50:24;5.40;97.10
11264;DHT22;5689;48.798;9.070;2023-01-29T13:52:58;5.60;97.00
11264;DHT22;5689;48.798;9.070;2023-01-29T13:55:30;5.50;97.10
11264;DHT22;5689;48.798;9.070;2023-01-29T13:57:59;5.80;97.10
11264;DHT22;5689;48.798;9.070;2023-01-29T14:00:54;5.10;98.00
11264;DHT22;5689;48.798;9.070;2023-01-29T14:03:51;5.60;97.80
11264;DHT22;5689;48.798;9.070;2023-01-29T14:06:49;6.30;95.70
11264;DHT22;5689;48.798;9.070;2023-01-29T14:12:44;6.40;95.80
11264;DHT22;5689;48.798;9.070;2023-01-29T14:15:27;6.20;95.10
11264;DHT22;5689;48.798;9.070;2023-01-29T14:18:03;5.40;97.00
11264;DHT22;5689;48.798;9.070;2023-01-29T14:20:37;5.00;97.60
11264;DHT22;5689;48.798;9.070;2023-01-29T14:23:22;4.80;97.30
11264;DHT22;5689;48.798;9.070;2023-01-29T14:25:54;4.70;97.70
11264;DHT22;5689;48.798;9.070;2023-01-29T14:28:25;4.50;99.00
11264;DHT22;5689;48.798;9.070;2023-01-29T14:30:54;4.60;97.90
11264;DHT22;5689;48.798;9.070;2023-01-29T14:33:34;4.70;97.70
11264;DHT22;5689;48.798;9.070;2023-01-29T14:36:05;4.40;98.00
11264;DHT22;5689;48.798;9.070;2023-01-29T14:38:36;4.00;98.20
11264;DHT22;5689;48.798;9.070;2023-01-29T14:41:14;3.70;99.00
11264;DHT22;5689;48.798;9.070;2023-01-29T14:43:44;3.50;99.60
11264;DHT22;5689;48.798;9.070;2023-01-29T14:46:41;3.50;99.90
11264;DHT22;5689;48.798;9.070;2023-01-29T14:49:09;3.60;99.50
11264;DHT22;5689;48.798;9.070;2023-01-29T14:51:40;3.50;99.90
11264;DHT22;5689;48.798;9.070;2023-01-29T14:54:23;3.50;99.90
11264;DHT22;5689;48.798;9.070;2023-01-29T14:57:03;3.60;99.90
11264;DHT22;5689;48.798;9.070;2023-01-29T14:59:34;3.50;99.90
11264;DHT22;5689;48.798;9.070;2023-01-29T15:02:11;3.60;99.90
11264;DHT22;5689;48.798;9.070;2023-01-29T15:04:46;3.50;99.90
11264;DHT22;5689;48.798;9.070;2023-01-29T15:07:26;3.40;99.90
11264;DHT22;5689;48.798;9.070;2023-01-29T15:10:03;3.50;99.90
11264;DHT22;5689;48.798;9.070;2023-01-29T15:12:51;3.40;99.90
11264;DHT22;5689;48.798;9.070;2023-01-29T15:15:27;3.50;99.90
11264;DHT22;5689;48.798;9.070;2023-01-29T15:18:02;3.40;99.90
11264;DHT22;5689;48.798;9.070;2023-01-29T15:20:33;3.40;99.90
11264;DHT22;5689;48.798;9.070;2023-01-29T15:23:02;3.00;99.90
11264;DHT22;5689;48.798;9.070;2023-01-29T15:25:35;2.90;99.90
11264;DHT22;5689;48.798;9.070;2023-01-29T15:28:04;3.00;99.90
11264;DHT22;5689;48.798;9.070;2023-01-29T15:30:37;2.80;99.90
11264;DHT22;5689;48.798;9.070;2023-01-29T15:33:07;2.50;99.90
11264;DHT22;5689;48.798;9.070;2023-01-29T15:35:37;2.60;99.90
11264;DHT22;5689;48.798;9.070;2023-01-29T15:38:14;2.80;99.90
11264;DHT22;5689;48.798;9.070;2023-01-29T15:40:52;2.70;99.90
11264;DHT22;5689;48.798;9.070;2023-01-29T15:43:21;2.60;99.90
11264;DHT22;5689;48.798;9.070;2023-01-29T15:45:50;2.60;99.90
11264;DHT22;5689;48.798;9.070;2023-01-29T15:48:23;2.40;99.90
11264;DHT22;5689;48.798;9.070;2023-01-29T15:50:55;2.60;99.90
11264;DHT22;5689;48.798;9.070;2023-01-29T15:53:27;2.60;99.90
11264;DHT22;5689;48.798;9.070;2023-01-29T15:55:57;2.40;99.90
11264;DHT22;5689;48.798;9.070;2023-01-29T15:58:28;2.40;99.90
11264;DHT22;5689;48.798;9.070;2023-01-29T16:00:59;2.30;99.90
11264;DHT22;5689;48.798;9.070;2023-01-29T16:03:30;2.30;99.90
11264;DHT22;5689;48.798;9.070;2023-01-29T16:05:59;2.30;99.90
11264;DHT22;5689;48.798;9.070;2023-01-29T16:08:28;2.10;99.90
11264;DHT22;5689;48.798;9.070;2023-01-29T16:11:00;1.90;99.90
11264;DHT22;5689;48.798;9.070;2023-01-29T16:13:30;1.60;99.90
11264;DHT22;5689;48.798;9.070;2023-01-29T16:16:01;1.40;99.90
11264;DHT22;5689;48.798;9.070;2023-01-29T16:18:31;1.30;99.90
11264;DHT22;5689;48.798;9.070;2023-01-29T16:21:03;1.30;99.90
11264;DHT22;5689;48.798;9.070;2023-01-29T16:23:39;1.20;99.90
11264;DHT22;5689;48.798;9.070;2023-01-29T16:26:14;1.10;99.90
11264;DHT22;5689;48.798;9.070;2023-01-29T16:28:44;1.10;99.90
11264;DHT22;5689;48.798;9.070;2023-01-29T16:31:20;1.00;99.90
11264;DHT22;5689;48.798;9.070;2023-01-29T16:33:48;1.10;99.90
11264;DHT22;5689;48.798;9.070;2023-01-29T16:36:18;1.00;99.90
11264;DHT22;5689;48.798;9.070;2023-01-29T16:38:49;0.90;99.90
11264;DHT22;5689;48.798;9.070;2023-01-29T16:41:29;0.90;99.90
11264;DHT22;5689;48.798;9.070;2023-01-29T16:43:59;0.60;99.90
11264;DHT22;5689;48.798;9.070;2023-01-29T16:46:33;0.50;99.90